Time;durP1;ratioP1;P1;durP2;ratioP2;P2;SDS_P1;SDS_P2;PMS_P1;PMS_P2;Temp;Humidity;BMP_temperature;BMP_pressure;BME280_temperature;BME280_humidity;BME280_pressure;Samples;Min_cycle;Max_cycle;Signal;HPM_P1;HPM_P2
2023/08/15 00:00:19;;;;;;;6.43;4.70;;;23.50;99.90;;;;;;5014949;28;20737;-75
2023/08/15 00:02:45;;;;;;;4.83;4.10;;;23.50;99.90;;;;;;4999251;28;20489;-75
2023/08/15 00:05:10;;;;;;;5.57;4.67;;;23.50;99.90;;;;;;5002010;28;20217;-75
2023/08/15 00:07:56;;;;;;;5.77;4.13;;;23.60;99.90;;;;;;5008175;28;20803;-75
2023/08/15 00:10:22;;;;;;;7.43;4.53;;;23.40;99.90;;;;;;5015181;28;20543;-75
2023/08/15 00:12:47;;;;;;;7.40;3.80;;;23.40;99.90;;;;;;5016888;28;20675;-75
2023/08/15 00:15:13;;;;;;;4.47;4.00;;;23.50;99.90;;;;;;5016986;28;20258;-75
2023/08/15 00:17:39;;;;;;;5.70;4.33;;;23.50;99.90;;;;;;5019082;28;20243;-75
2023/08/15 00:20:06;;;;;;;5.73;4.63;;;23.50;99.90;;;;;;5018284;28;20227;-75
2023/08/15 00:22:32;;;;;;;7.37;5.17;;;23.50;99.90;;;;;;5016122;28;20818;-75
2023/08/15 00:24:57;;;;;;;4.77;4.30;;;23.50;99.90;;;;;;5017259;28;20473;-75
2023/08/15 00:27:23;;;;;;;4.40;4.10;;;23.50;99.90;;;;;;5018149;28;20832;-75
2023/08/15 00:29:49;;;;;;;5.00;4.57;;;23.50;99.90;;;;;;5013278;28;20240;-75
2023/08/15 00:32:14;;;;;;;5.00;4.37;;;23.50;99.90;;;;;;5036112;28;20220;-75
2023/08/15 00:34:40;;;;;;;6.60;4.70;;;23.50;99.90;;;;;;5034348;28;20220;-75
2023/08/15 00:37:05;;;;;;;6.20;3.70;;;23.40;99.90;;;;;;5034520;28;20230;-75
2023/08/15 00:39:31;;;;;;;5.07;4.60;;;23.40;99.90;;;;;;5018470;28;20266;-75
2023/08/15 00:41:57;;;;;;;6.67;4.17;;;23.40;99.90;;;;;;5017037;28;20334;-75
2023/08/15 00:44:23;;;;;;;4.53;4.00;;;23.40;99.90;;;;;;5014216;28;20238;-75
2023/08/15 00:46:49;;;;;;;5.83;4.63;;;23.40;99.90;;;;;;5017459;28;20674;-74
2023/08/15 00:49:14;;;;;;;4.80;4.40;;;23.40;99.90;;;;;;5017219;28;20222;-75
2023/08/15 00:51:40;;;;;;;5.27;4.50;;;23.30;99.90;;;;;;5016215;28;20293;-73
2023/08/15 00:54:06;;;;;;;5.63;4.27;;;23.30;99.90;;;;;;5017965;28;20219;-73
2023/08/15 00:56:32;;;;;;;4.30;3.93;;;23.20;99.90;;;;;;5019426;28;20474;-74
2023/08/15 00:58:59;;;;;;;4.37;4.00;;;23.20;99.90;;;;;;5017394;28;20827;-73
2023/08/15 01:01:25;;;;;;;5.33;4.83;;;23.30;99.90;;;;;;5017405;28;20462;-74
2023/08/15 01:03:51;;;;;;;5.60;5.10;;;23.30;99.90;;;;;;5033694;28;20458;-74
2023/08/15 01:06:17;;;;;;;4.73;4.43;;;23.30;99.90;;;;;;5016823;28;21003;-74
2023/08/15 01:08:43;;;;;;;5.07;4.57;;;23.20;99.90;;;;;;5018789;28;20465;-74
2023/08/15 01:11:09;;;;;;;5.10;4.60;;;23.20;99.90;;;;;;5016681;28;20314;-74
2023/08/15 01:13:42;;;;;;;5.63;5.13;;;23.20;99.90;;;;;;5034268;28;20230;-74
2023/08/15 01:16:14;;;;;;;5.20;4.70;;;23.10;99.90;;;;;;5018187;28;20493;-74
2023/08/15 01:18:58;;;;;;;4.83;4.43;;;23.10;99.90;;;;;;5018134;28;20481;-74
2023/08/15 01:21:28;;;;;;;6.80;4.60;;;23.20;99.90;;;;;;5034128;28;21106;-74
2023/08/15 01:23:55;;;;;;;5.40;5.00;;;23.00;99.90;;;;;;5017460;28;20474;-74
2023/08/15 01:26:21;;;;;;;7.50;3.80;;;22.90;99.90;;;;;;5002130;28;20487;-73
2023/08/15 01:28:46;;;;;;;5.03;4.53;;;23.00;99.90;;;;;;5002042;28;20502;-73
2023/08/15 01:31:27;;;;;;;4.60;4.23;;;23.10;99.90;;;;;;5017101;28;20265;-73
2023/08/15 01:34:02;;;;;;;4.93;4.00;;;23.10;99.90;;;;;;5033061;28;20338;-74
2023/08/15 01:36:33;;;;;;;4.63;4.20;;;23.10;99.90;;;;;;4999926;28;20588;-74
2023/08/15 01:39:05;;;;;;;4.80;4.40;;;23.10;99.90;;;;;;5018837;28;21219;-74
2023/08/15 01:41:38;;;;;;;5.60;5.10;;;23.10;99.90;;;;;;5034572;28;20458;-74
2023/08/15 01:44:07;;;;;;;4.57;4.17;;;23.10;99.90;;;;;;5018393;28;20578;-73
2023/08/15 01:46:33;;;;;;;4.80;4.40;;;23.00;99.90;;;;;;5000786;28;20561;-73
2023/08/15 01:48:59;;;;;;;5.23;4.30;;;23.00;99.90;;;;;;5019105;28;20477;-74
2023/08/15 01:51:25;;;;;;;5.37;4.87;;;22.90;99.90;;;;;;5014314;28;20326;-74
2023/08/15 01:53:51;;;;;;;5.50;4.90;;;22.80;99.90;;;;;;5000376;28;20574;-74
2023/08/15 01:56:16;;;;;;;5.87;4.70;;;22.90;99.90;;;;;;5004751;28;20887;-74
2023/08/15 01:58:42;;;;;;;5.20;4.67;;;22.90;99.90;;;;;;5005367;28;20247;-74
2023/08/15 02:01:08;;;;;;;5.60;4.60;;;22.90;99.90;;;;;;5000604;28;20840;-74
2023/08/15 02:03:34;;;;;;;6.13;4.40;;;22.90;99.90;;;;;;5003689;28;20228;-74
2023/08/15 02:05:59;;;;;;;6.57;5.10;;;22.90;99.90;;;;;;5022021;28;20227;-74
2023/08/15 02:08:25;;;;;;;5.37;4.70;;;22.80;99.90;;;;;;5019228;28;20345;-74
2023/08/15 02:10:51;;;;;;;6.37;5.27;;;22.80;99.90;;;;;;5038319;28;20239;-74
2023/08/15 02:13:17;;;;;;;6.07;5.57;;;22.80;99.90;;;;;;5005045;28;20217;-73
2023/08/15 02:15:44;;;;;;;8.50;6.50;;;22.30;99.90;;;;;;4999147;28;20667;-74
2023/08/15 02:18:10;;;;;;;9.23;5.63;;;22.20;99.90;;;;;;5004615;28;20916;-73
2023/08/15 02:20:37;;;;;;;7.93;7.13;;;22.30;99.90;;;;;;5020640;28;20489;-74
2023/08/15 02:23:02;;;;;;;6.57;5.70;;;22.30;99.90;;;;;;5020955;28;20528;-74
2023/08/15 02:25:28;;;;;;;6.20;5.70;;;22.30;99.90;;;;;;5021052;28;20924;-73
2023/08/15 02:27:54;;;;;;;6.27;5.50;;;22.40;99.90;;;;;;5018832;28;20351;-74
2023/08/15 02:30:21;;;;;;;6.80;6.03;;;22.30;99.90;;;;;;5003945;28;20218;-74
2023/08/15 02:32:47;;;;;;;9.23;5.73;;;22.30;99.90;;;;;;4984916;28;20505;-74
2023/08/15 02:35:13;;;;;;;6.57;6.00;;;22.30;99.90;;;;;;5005447;28;20258;-73
2023/08/15 02:37:39;;;;;;;6.70;6.10;;;22.20;99.90;;;;;;5012665;28;20691;-74
2023/08/15 02:40:08;;;;;;;6.77;6.07;;;22.10;99.90;;;;;;4993790;28;20246;-73
2023/08/15 02:42:34;;;;;;;6.63;5.47;;;22.00;99.90;;;;;;5003457;28;20573;-74
2023/08/15 02:45:00;;;;;;;5.60;5.10;;;22.20;99.90;;;;;;5021036;28;20928;-73
2023/08/15 02:47:26;;;;;;;10.77;5.63;;;22.30;99.90;;;;;;5002477;28;20216;-73
2023/08/15 02:49:52;;;;;;;5.63;5.13;;;22.40;99.90;;;;;;5003987;28;20258;-73
2023/08/15 02:52:17;;;;;;;6.13;5.20;;;22.50;99.90;;;;;;5018312;28;21060;-73
2023/08/15 02:54:43;;;;;;;7.10;5.33;;;22.50;99.90;;;;;;5004519;28;20267;-73
2023/08/15 02:57:09;;;;;;;8.67;6.10;;;22.60;99.90;;;;;;5033910;28;20223;-73
2023/08/15 02:59:34;;;;;;;10.90;5.50;;;22.60;99.90;;;;;;5021259;28;20343;-73
2023/08/15 03:02:00;;;;;;;6.63;5.93;;;22.60;99.90;;;;;;5018302;28;20844;-73
2023/08/15 03:04:25;;;;;;;6.43;5.83;;;22.50;99.90;;;;;;5036238;28;20260;-73
2023/08/15 03:06:51;;;;;;;6.80;6.10;;;22.40;99.90;;;;;;5002682;28;20244;-74
2023/08/15 03:09:17;;;;;;;5.60;5.10;;;22.40;99.90;;;;;;5021139;28;20337;-73
2023/08/15 03:11:43;;;;;;;7.67;5.80;;;22.50;99.90;;;;;;5038225;28;20236;-73
2023/08/15 03:14:09;;;;;;;6.27;5.70;;;22.40;99.90;;;;;;5004299;28;20216;-73
2023/08/15 03:16:35;;;;;;;7.33;5.90;;;22.40;99.90;;;;;;5005588;28;20472;-73
2023/08/15 03:19:00;;;;;;;7.67;6.47;;;22.30;99.90;;;;;;5005113;28;20503;-73
2023/08/15 03:21:26;;;;;;;6.40;5.80;;;22.20;99.90;;;;;;5020758;28;20231;-74
2023/08/15 03:23:52;;;;;;;6.83;6.17;;;22.20;99.90;;;;;;5022904;28;20223;-74
2023/08/15 03:26:17;;;;;;;6.27;5.00;;;22.20;99.90;;;;;;5004347;28;20493;-74
2023/08/15 03:28:44;;;;;;;6.93;6.03;;;22.30;99.90;;;;;;5005848;28;20220;-74
2023/08/15 03:31:10;;;;;;;7.20;6.50;;;22.10;99.90;;;;;;5022264;28;20571;-73
2023/08/15 03:33:41;;;;;;;7.60;6.37;;;21.90;99.90;;;;;;5012485;28;20798;-74
2023/08/15 03:36:07;;;;;;;10.17;6.03;;;21.80;99.90;;;;;;5004315;28;20563;-73
2023/08/15 03:38:34;;;;;;;6.70;5.43;;;21.80;99.90;;;;;;5004570;28;20236;-73
2023/08/15 03:41:05;;;;;;;6.30;5.70;;;21.80;99.90;;;;;;5022391;28;21142;-73
2023/08/15 03:43:32;;;;;;;8.70;6.40;;;21.80;99.90;;;;;;5020875;28;20313;-73
2023/08/15 03:45:59;;;;;;;6.40;5.77;;;21.80;99.90;;;;;;5037517;28;20470;-73
2023/08/15 03:48:25;;;;;;;8.10;5.83;;;21.60;99.90;;;;;;5018645;28;20470;-73
2023/08/15 03:50:53;;;;;;;6.40;5.80;;;21.60;99.90;;;;;;5021913;28;21100;-73
2023/08/15 03:53:19;;;;;;;6.70;6.10;;;21.70;99.90;;;;;;5019545;28;20223;-74
2023/08/15 03:55:47;;;;;;;6.77;6.17;;;21.60;99.90;;;;;;5006940;28;20462;-74
2023/08/15 03:58:12;;;;;;;6.23;5.57;;;21.60;99.90;;;;;;4994002;28;20314;-74
2023/08/15 04:00:38;;;;;;;6.17;5.30;;;21.60;99.90;;;;;;5004315;28;20478;-73
2023/08/15 04:03:04;;;;;;;4.77;4.10;;;21.60;99.90;;;;;;5036845;28;20224;-73
2023/08/15 04:05:29;;;;;;;6.70;5.17;;;21.70;99.90;;;;;;5036946;28;20226;-73
2023/08/15 04:07:55;;;;;;;5.60;4.50;;;21.80;99.90;;;;;;5005042;28;20235;-73
2023/08/15 04:10:21;;;;;;;4.03;3.67;;;21.90;99.90;;;;;;5020690;28;20251;-73
2023/08/15 04:12:46;;;;;;;3.53;3.23;;;21.80;99.90;;;;;;5003639;28;20247;-73
2023/08/15 04:15:12;;;;;;;3.50;3.20;;;21.80;99.90;;;;;;4987515;28;20803;-73
2023/08/15 04:17:38;;;;;;;3.20;2.90;;;21.80;99.90;;;;;;5006296;28;20266;-72
2023/08/15 04:20:05;;;;;;;2.80;2.60;;;21.70;99.90;;;;;;5019369;28;20285;-72
2023/08/15 04:22:31;;;;;;;4.80;3.33;;;21.80;99.90;;;;;;5004955;28;20973;-72
2023/08/15 04:24:57;;;;;;;4.50;2.83;;;21.80;99.90;;;;;;5002665;28;20483;-73
2023/08/15 04:27:23;;;;;;;2.90;2.60;;;21.80;99.90;;;;;;5036760;28;21144;-73
2023/08/15 04:29:48;;;;;;;3.10;2.70;;;21.80;99.90;;;;;;5037677;28;20231;-73
2023/08/15 04:32:14;;;;;;;4.63;4.20;;;21.80;99.90;;;;;;5035398;28;20219;-73
2023/08/15 04:34:40;;;;;;;3.40;3.10;;;21.80;99.90;;;;;;5004490;28;20227;-73
2023/08/15 04:37:06;;;;;;;4.10;3.10;;;21.80;99.90;;;;;;5020309;28;20796;-73
2023/08/15 04:39:32;;;;;;;2.67;2.47;;;21.90;99.90;;;;;;5003689;28;20320;-73
2023/08/15 04:41:59;;;;;;;2.70;2.50;;;21.90;99.90;;;;;;5033789;28;20466;-72
2023/08/15 04:44:25;;;;;;;2.87;2.63;;;21.90;99.90;;;;;;5002144;28;20478;-73
2023/08/15 04:46:51;;;;;;;2.40;2.20;;;21.90;99.90;;;;;;5000835;28;20226;-73
2023/08/15 04:49:16;;;;;;;3.10;2.80;;;21.90;99.90;;;;;;5020296;28;20219;-73
2023/08/15 04:51:42;;;;;;;3.03;2.83;;;21.90;99.90;;;;;;5021340;28;20783;-73
2023/08/15 04:54:08;;;;;;;3.43;3.17;;;22.00;99.90;;;;;;5035523;28;20663;-72
2023/08/15 04:56:33;;;;;;;3.27;2.97;;;21.90;99.90;;;;;;5018687;28;20781;-73
2023/08/15 04:58:59;;;;;;;3.17;2.87;;;21.90;99.90;;;;;;5002695;28;20264;-75
2023/08/15 05:01:25;;;;;;;2.80;2.60;;;21.90;99.90;;;;;;4999821;28;20221;-73
2023/08/15 05:03:50;;;;;;;2.90;2.70;;;22.00;99.90;;;;;;4998836;28;20232;-73
2023/08/15 05:06:16;;;;;;;3.83;2.80;;;22.00;99.90;;;;;;4992746;28;20219;-73
2023/08/15 05:08:42;;;;;;;3.53;3.23;;;21.90;99.90;;;;;;5000986;28;20219;-73
2023/08/15 05:11:08;;;;;;;9.23;5.33;;;21.80;99.90;;;;;;4996939;28;20685;-73
2023/08/15 05:13:34;;;;;;;3.20;2.90;;;21.90;99.90;;;;;;5030760;28;20243;-72
2023/08/15 05:15:59;;;;;;;3.87;2.70;;;21.90;99.90;;;;;;5030536;28;20596;-73
2023/08/15 05:18:25;;;;;;;5.03;3.20;;;21.90;99.90;;;;;;4995910;28;20271;-73
2023/08/15 05:20:51;;;;;;;3.17;2.87;;;21.80;99.90;;;;;;4999329;28;20330;-72
2023/08/15 05:23:19;;;;;;;5.03;3.10;;;21.70;99.90;;;;;;4997700;28;20534;-72
2023/08/15 05:25:46;;;;;;;3.37;2.97;;;21.70;99.90;;;;;;4998298;28;20501;-73
2023/08/15 05:28:14;;;;;;;2.70;2.50;;;21.80;99.90;;;;;;5013969;28;20491;-72
2023/08/15 05:30:41;;;;;;;3.57;2.73;;;21.80;99.90;;;;;;5016097;28;20600;-73
2023/08/15 05:33:07;;;;;;;3.20;2.90;;;21.70;99.90;;;;;;5018878;28;20247;-73
2023/08/15 05:35:33;;;;;;;3.10;2.80;;;21.80;99.90;;;;;;5002909;28;21006;-73
2023/08/15 05:37:59;;;;;;;2.23;2.13;;;21.70;99.90;;;;;;4998830;28;20234;-73
2023/08/15 05:40:26;;;;;;;3.40;2.90;;;21.70;99.90;;;;;;5001575;28;20490;-73
2023/08/15 05:42:51;;;;;;;5.23;2.50;;;21.70;99.90;;;;;;5035450;28;20299;-73
2023/08/15 05:45:17;;;;;;;2.60;2.40;;;21.80;99.90;;;;;;5015535;28;20485;-73
2023/08/15 05:47:43;;;;;;;4.63;3.10;;;21.90;99.90;;;;;;5002027;28;20228;-73
2023/08/15 05:50:09;;;;;;;3.03;2.67;;;21.90;99.90;;;;;;5000959;28;20349;-73
2023/08/15 05:52:35;;;;;;;2.33;2.17;;;21.90;99.90;;;;;;5001986;28;20278;-73
2023/08/15 05:55:00;;;;;;;2.80;2.60;;;21.90;99.90;;;;;;5002401;28;20475;-73
2023/08/15 05:57:26;;;;;;;3.00;2.50;;;21.90;99.90;;;;;;5018611;28;20235;-73
2023/08/15 05:59:52;;;;;;;3.90;2.77;;;21.90;99.90;;;;;;5017307;28;20302;-73
2023/08/15 06:02:18;;;;;;;3.87;3.00;;;21.90;99.90;;;;;;5000212;28;20224;-73
2023/08/15 06:04:44;;;;;;;3.77;2.30;;;21.90;99.90;;;;;;5017466;28;20231;-73
2023/08/15 06:07:10;;;;;;;2.23;2.03;;;21.90;99.90;;;;;;5015951;28;20573;-73
2023/08/15 06:09:35;;;;;;;2.83;2.40;;;21.90;99.90;;;;;;5020011;28;20235;-72
2023/08/15 06:12:01;;;;;;;4.20;2.03;;;21.90;99.90;;;;;;5037078;28;20229;-73
2023/08/15 06:14:27;;;;;;;2.90;2.70;;;21.90;99.90;;;;;;5020426;28;20223;-73
2023/08/15 06:16:52;;;;;;;2.60;2.20;;;21.90;99.90;;;;;;5035868;28;20686;-73
2023/08/15 06:19:18;;;;;;;3.17;2.50;;;21.90;99.90;;;;;;5018781;28;20765;-74
2023/08/15 06:21:44;;;;;;;2.80;2.20;;;21.90;99.90;;;;;;5035779;28;20223;-74
2023/08/15 06:24:11;;;;;;;3.17;2.90;;;22.00;99.90;;;;;;5021349;28;20222;-74
2023/08/15 06:26:38;;;;;;;3.50;3.00;;;22.00;99.90;;;;;;5037822;28;20231;-73
2023/08/15 06:29:05;;;;;;;2.93;2.73;;;22.00;99.90;;;;;;5020074;28;20461;-73
2023/08/15 06:31:31;;;;;;;3.30;2.63;;;22.10;99.90;;;;;;5022336;28;20438;-73
2023/08/15 06:33:57;;;;;;;5.30;3.60;;;22.10;99.90;;;;;;5025906;28;20576;-73
2023/08/15 06:36:23;;;;;;;2.97;2.70;;;22.10;99.90;;;;;;5038983;28;20468;-73
2023/08/15 06:38:50;;;;;;;3.40;3.10;;;22.20;99.90;;;;;;5041803;28;20230;-73
2023/08/15 06:41:16;;;;;;;3.33;3.03;;;22.20;99.90;;;;;;5018906;28;20308;-73
2023/08/15 06:43:42;;;;;;;3.83;3.37;;;22.20;99.90;;;;;;5038892;28;20558;-73
2023/08/15 06:46:08;;;;;;;3.30;3.00;;;22.30;99.90;;;;;;5039694;28;20476;-73
2023/08/15 06:48:33;;;;;;;3.70;3.10;;;22.30;99.90;;;;;;5000784;28;20595;-73
2023/08/15 06:50:59;;;;;;;3.70;3.40;;;22.30;99.90;;;;;;5019196;28;20248;-73
2023/08/15 06:53:25;;;;;;;3.47;3.00;;;22.40;99.90;;;;;;5019029;28;20300;-73
2023/08/15 06:55:51;;;;;;;3.10;2.90;;;22.50;99.90;;;;;;5019601;28;20337;-73
2023/08/15 06:58:17;;;;;;;3.50;3.20;;;22.60;99.90;;;;;;5020152;28;20489;-73
2023/08/15 07:00:44;;;;;;;3.77;3.47;;;22.60;99.90;;;;;;5002056;28;20248;-73
2023/08/15 07:03:10;;;;;;;3.00;2.80;;;22.60;99.90;;;;;;5034236;28;20494;-73
2023/08/15 07:05:35;;;;;;;3.10;2.80;;;22.70;99.90;;;;;;5033748;28;20554;-73
2023/08/15 07:08:03;;;;;;;3.27;2.97;;;22.70;99.90;;;;;;5004934;28;20298;-73
2023/08/15 07:10:32;;;;;;;4.10;2.53;;;22.80;99.90;;;;;;5016081;28;20226;-73
2023/08/15 07:12:58;;;;;;;4.83;3.80;;;22.90;99.90;;;;;;5036726;28;20481;-73
2023/08/15 07:15:23;;;;;;;4.80;4.10;;;23.00;99.90;;;;;;5019594;28;20481;-73
2023/08/15 07:17:49;;;;;;;4.27;3.87;;;23.00;99.90;;;;;;5018688;28;20223;-73
2023/08/15 07:20:14;;;;;;;5.37;4.87;;;23.00;99.90;;;;;;5016057;28;20226;-73
2023/08/15 07:22:43;;;;;;;3.63;3.33;;;23.10;99.90;;;;;;5017493;28;20226;-73
2023/08/15 07:25:10;;;;;;;4.50;3.00;;;23.00;99.90;;;;;;5016422;28;20223;-73
2023/08/15 07:27:36;;;;;;;5.37;4.30;;;23.10;99.90;;;;;;5037582;28;21212;-73
2023/08/15 07:30:02;;;;;;;3.37;3.07;;;23.10;99.90;;;;;;5038278;28;20588;-73
2023/08/15 07:32:28;;;;;;;6.30;3.40;;;23.20;99.90;;;;;;5035686;28;20285;-74
2023/08/15 07:34:54;;;;;;;4.47;3.30;;;23.20;99.90;;;;;;5036826;28;20313;-73
2023/08/15 07:37:20;;;;;;;4.60;3.90;;;23.30;99.90;;;;;;5003294;28;20685;-73
2023/08/15 07:39:55;;;;;;;3.90;3.60;;;23.40;99.90;;;;;;5001054;28;20458;-73
2023/08/15 07:42:20;;;;;;;3.93;3.50;;;23.50;99.90;;;;;;5001412;28;20345;-73
2023/08/15 07:44:47;;;;;;;4.17;3.77;;;23.50;99.90;;;;;;5000713;28;20468;-73
2023/08/15 07:47:12;;;;;;;5.07;4.20;;;23.40;99.90;;;;;;4998235;28;20223;-73
2023/08/15 07:49:38;;;;;;;4.97;4.47;;;23.50;99.90;;;;;;5017426;28;20554;-73
2023/08/15 07:52:04;;;;;;;4.33;3.50;;;23.40;99.90;;;;;;5001315;28;20311;-73
2023/08/15 07:54:30;;;;;;;4.07;3.77;;;23.40;99.90;;;;;;5030888;28;20346;-73
2023/08/15 07:56:56;;;;;;;4.50;3.93;;;23.40;99.90;;;;;;5002480;28;20230;-73
2023/08/15 07:59:22;;;;;;;4.47;4.07;;;23.50;99.90;;;;;;5016510;28;20466;-73
2023/08/15 08:01:48;;;;;;;4.63;3.70;;;23.60;99.90;;;;;;5032417;28;20215;-73
2023/08/15 08:04:14;;;;;;;3.73;3.43;;;23.60;99.90;;;;;;4998385;28;20581;-73
2023/08/15 08:06:39;;;;;;;4.37;3.97;;;23.70;99.90;;;;;;5001631;28;20224;-73
2023/08/15 08:09:05;;;;;;;3.70;3.40;;;23.80;99.90;;;;;;5015282;28;20223;-73
2023/08/15 08:11:31;;;;;;;4.57;4.07;;;23.80;99.90;;;;;;5017782;28;20250;-73
2023/08/15 08:13:57;;;;;;;8.03;3.27;;;23.90;99.90;;;;;;5001681;28;20474;-73
2023/08/15 08:16:23;;;;;;;3.47;3.23;;;24.00;99.90;;;;;;4996468;28;20338;-73
2023/08/15 08:18:49;;;;;;;3.40;3.20;;;24.20;99.90;;;;;;5016438;28;20227;-73
2023/08/15 08:21:14;;;;;;;4.07;3.27;;;24.30;99.90;;;;;;4999687;28;20227;-73
2023/08/15 08:23:40;;;;;;;3.87;3.67;;;24.30;99.90;;;;;;5016133;28;20238;-73
2023/08/15 08:26:06;;;;;;;3.43;3.20;;;24.40;99.90;;;;;;5001784;28;20227;-73
2023/08/15 08:28:32;;;;;;;3.60;3.30;;;24.40;99.90;;;;;;4999616;28;20682;-73
2023/08/15 08:30:58;;;;;;;3.90;3.33;;;24.40;99.90;;;;;;5016242;28;20247;-73
2023/08/15 08:33:24;;;;;;;5.13;3.23;;;24.60;99.90;;;;;;5014899;28;20339;-73
2023/08/15 08:35:50;;;;;;;3.70;3.40;;;24.80;99.90;;;;;;5017935;28;21240;-73
2023/08/15 08:38:15;;;;;;;4.20;3.90;;;25.00;99.90;;;;;;4999065;28;20337;-73
2023/08/15 08:40:42;;;;;;;3.50;3.20;;;25.10;99.90;;;;;;5002698;28;20231;-73
2023/08/15 08:43:10;;;;;;;3.70;3.40;;;25.10;99.90;;;;;;5016731;28;20223;-74
2023/08/15 08:45:43;;;;;;;3.73;3.03;;;25.10;99.90;;;;;;4999431;28;20463;-73
2023/08/15 08:48:09;;;;;;;3.57;3.27;;;25.10;99.90;;;;;;5014737;28;20477;-73
2023/08/15 08:50:37;;;;;;;4.03;3.63;;;25.10;99.90;;;;;;4998616;28;20485;-73
2023/08/15 08:53:03;;;;;;;3.87;3.57;;;25.40;99.90;;;;;;5031928;28;21073;-73
2023/08/15 08:55:31;;;;;;;4.00;3.67;;;25.50;99.90;;;;;;4999721;28;20490;-74
2023/08/15 08:58:00;;;;;;;3.83;3.53;;;25.80;99.90;;;;;;5004146;28;20246;-73
2023/08/15 09:00:31;;;;;;;4.43;3.50;;;25.90;99.90;;;;;;4998063;28;20671;-74
2023/08/15 09:02:57;;;;;;;4.10;3.80;;;25.90;99.90;;;;;;5016854;28;20562;-73
2023/08/15 09:05:24;;;;;;;4.03;3.73;;;26.00;99.90;;;;;;5017542;28;21101;-73
2023/08/15 09:07:50;;;;;;;3.90;3.50;;;26.00;99.90;;;;;;5004880;28;20488;-73
2023/08/15 09:10:15;;;;;;;3.90;3.60;;;26.00;99.90;;;;;;5002196;28;21003;-74
2023/08/15 09:12:42;;;;;;;3.90;3.60;;;26.20;99.90;;;;;;5019804;28;20227;-73
2023/08/15 09:15:09;;;;;;;5.80;3.70;;;26.30;99.90;;;;;;5004931;28;20250;-73
2023/08/15 09:17:35;;;;;;;4.00;3.70;;;26.20;99.90;;;;;;5033979;28;20480;-74
2023/08/15 09:20:10;;;;;;;4.10;3.80;;;26.20;99.90;;;;;;5001144;28;20473;-74
2023/08/15 09:22:38;;;;;;;4.50;4.20;;;26.30;99.90;;;;;;5000950;28;20496;-74
2023/08/15 09:25:04;;;;;;;4.53;4.13;;;26.40;99.90;;;;;;5020867;28;20485;-73
2023/08/15 09:27:30;;;;;;;4.93;4.50;;;26.40;99.90;;;;;;5019020;28;20535;-74
2023/08/15 09:29:55;;;;;;;3.80;3.50;;;26.40;99.90;;;;;;5037189;28;20239;-74
2023/08/15 09:32:22;;;;;;;4.17;3.73;;;26.40;99.90;;;;;;5016837;28;20346;-74
2023/08/15 09:34:47;;;;;;;4.60;4.20;;;26.50;99.90;;;;;;5022020;28;20415;-74
2023/08/15 09:37:13;;;;;;;4.73;4.33;;;26.60;99.90;;;;;;5018514;28;20247;-74
2023/08/15 09:39:39;;;;;;;3.80;3.37;;;26.70;99.90;;;;;;5019127;28;20250;-74
2023/08/15 09:42:05;;;;;;;4.17;3.87;;;26.90;99.90;;;;;;5001887;28;20334;-74
2023/08/15 09:44:37;;;;;;;4.13;3.83;;;27.00;99.90;;;;;;5023150;28;20220;-74
2023/08/15 09:47:04;;;;;;;7.47;3.50;;;27.10;99.90;;;;;;5004509;28;20342;-74
2023/08/15 09:49:31;;;;;;;4.13;3.72;;;27.10;99.90;;;;;;5000183;28;21228;-74
2023/08/15 09:52:00;;;;;;;3.70;3.40;;;27.10;99.90;;;;;;5003281;28;20220;-74
2023/08/15 09:54:27;;;;;;;4.60;3.83;;;27.00;99.90;;;;;;5016707;28;20481;-74
2023/08/15 09:56:53;;;;;;;4.60;3.60;;;27.10;99.90;;;;;;5035920;28;20345;-74
2023/08/15 09:59:20;;;;;;;3.58;3.28;;;27.10;99.90;;;;;;5002787;28;20678;-74
2023/08/15 10:01:46;;;;;;;3.80;3.00;;;27.30;99.90;;;;;;5010166;28;20234;-74
2023/08/15 10:04:13;;;;;;;3.80;3.50;;;27.20;99.90;;;;;;5017503;28;20241;-74
2023/08/15 10:06:44;;;;;;;3.63;3.33;;;27.20;99.90;;;;;;5020917;28;20481;-74
2023/08/15 10:09:12;;;;;;;3.65;3.35;;;27.30;99.90;;;;;;5035623;28;20230;-74
2023/08/15 10:11:43;;;;;;;3.70;3.40;;;27.30;99.90;;;;;;5018233;28;20242;-74
2023/08/15 10:14:09;;;;;;;3.72;3.42;;;27.30;99.90;;;;;;5002918;28;20590;-74
2023/08/15 10:16:35;;;;;;;3.40;2.92;;;27.30;99.90;;;;;;5012212;28;20227;-74
2023/08/15 10:19:01;;;;;;;4.18;3.88;;;27.30;99.90;;;;;;5019018;28;20238;-74
2023/08/15 10:21:49;;;;;;;2.97;2.78;;;27.30;99.90;;;;;;5015482;28;20233;-74
2023/08/15 10:24:14;;;;;;;3.03;2.83;;;27.20;99.90;;;;;;5020206;28;20907;-74
2023/08/15 10:26:40;;;;;;;3.47;3.17;;;27.20;99.90;;;;;;5021653;28;20224;-74
2023/08/15 10:29:06;;;;;;;3.30;3.10;;;27.10;99.90;;;;;;5015590;28;20848;-74
2023/08/15 10:31:37;;;;;;;3.45;2.63;;;27.00;99.90;;;;;;5018067;28;20219;-74
2023/08/15 10:34:07;;;;;;;4.07;3.67;;;26.80;99.90;;;;;;5019624;28;20223;-74
2023/08/15 10:36:32;;;;;;;4.30;3.50;;;26.60;99.90;;;;;;5017230;28;20231;-74
2023/08/15 10:39:05;;;;;;;4.23;3.87;;;26.60;99.90;;;;;;5018991;28;20223;-74
2023/08/15 10:41:33;;;;;;;4.10;3.80;;;26.40;99.90;;;;;;5018805;28;20219;-74
2023/08/15 10:44:03;;;;;;;3.40;3.10;;;26.20;99.90;;;;;;5033703;28;20227;-73
2023/08/15 10:46:31;;;;;;;4.23;3.90;;;26.10;99.90;;;;;;5019042;28;20226;-73
2023/08/15 10:49:07;;;;;;;4.63;4.23;;;25.90;99.90;;;;;;5035635;28;20521;-73
2023/08/15 10:51:37;;;;;;;4.87;4.00;;;25.70;99.90;;;;;;5033613;28;20220;-73
2023/08/15 10:54:06;;;;;;;3.70;3.33;;;25.60;99.90;;;;;;5035403;28;20570;-73
2023/08/15 10:56:34;;;;;;;4.23;3.83;;;25.50;99.90;;;;;;5020697;28;20482;-74
2023/08/15 10:59:06;;;;;;;5.23;4.73;;;25.50;99.90;;;;;;5016178;28;20481;-73
2023/08/15 11:01:32;;;;;;;6.53;3.83;;;25.40;99.90;;;;;;5016283;28;20458;-73
2023/08/15 11:03:58;;;;;;;4.00;3.60;;;25.40;99.90;;;;;;5018037;28;20576;-73
2023/08/15 11:06:24;;;;;;;4.43;4.00;;;25.20;99.90;;;;;;5019411;28;20482;-73
2023/08/15 11:08:54;;;;;;;4.20;3.90;;;25.10;99.90;;;;;;5036132;28;21040;-73
2023/08/15 11:11:20;;;;;;;5.90;5.40;;;25.10;99.90;;;;;;5017400;28;20269;-73
2023/08/15 11:13:49;;;;;;;4.07;3.70;;;25.10;99.90;;;;;;5017172;28;20552;-74
2023/08/15 11:16:17;;;;;;;3.87;3.57;;;25.00;99.90;;;;;;5031788;28;20231;-74
2023/08/15 11:18:43;;;;;;;3.90;3.50;;;24.90;99.90;;;;;;5018742;28;20954;-73
2023/08/15 11:21:11;;;;;;;4.83;3.87;;;24.70;99.90;;;;;;5019551;28;20462;-74
2023/08/15 11:23:37;;;;;;;5.23;4.30;;;24.50;99.90;;;;;;5016728;28;21108;-74
2023/08/15 11:26:10;;;;;;;8.50;4.87;;;24.40;99.90;;;;;;5018957;28;20474;-73
2023/08/15 11:28:36;;;;;;;6.80;3.60;;;24.30;99.90;;;;;;4980419;28;20489;-74
2023/08/15 11:31:06;;;;;;;4.40;4.00;;;24.30;99.90;;;;;;5013878;28;20466;-73
2023/08/15 11:33:32;;;;;;;5.07;3.70;;;24.30;99.90;;;;;;5019697;28;20472;-73
2023/08/15 11:36:03;;;;;;;4.53;4.13;;;24.30;99.90;;;;;;5038446;28;20481;-73
2023/08/15 11:38:29;;;;;;;4.67;4.20;;;24.40;99.90;;;;;;5039223;28;20243;-74
2023/08/15 11:40:57;;;;;;;12.93;4.97;;;24.60;99.90;;;;;;5021799;28;21152;-73
2023/08/15 11:43:25;;;;;;;4.97;4.57;;;24.60;99.90;;;;;;5003671;28;20471;-73
2023/08/15 11:45:51;;;;;;;6.83;4.40;;;24.70;99.90;;;;;;5036867;28;20472;-73
2023/08/15 11:48:17;;;;;;;4.03;3.70;;;24.60;99.90;;;;;;5018345;28;20503;-73
2023/08/15 11:50:43;;;;;;;4.63;4.13;;;24.40;99.90;;;;;;5004120;28;20575;-73
2023/08/15 11:53:11;;;;;;;5.50;4.03;;;24.40;99.90;;;;;;5020549;28;20574;-74
2023/08/15 11:55:38;;;;;;;4.50;4.10;;;24.40;99.90;;;;;;5019309;28;20646;-74
2023/08/15 11:58:26;;;;;;;4.90;4.40;;;24.50;99.90;;;;;;5023129;28;20537;-74
2023/08/15 12:01:11;;;;;;;5.40;4.13;;;24.20;99.90;;;;;;5013404;28;20508;-73
2023/08/15 12:03:38;;;;;;;4.13;3.70;;;24.30;99.90;;;;;;5020190;28;20582;-74
2023/08/15 12:06:09;;;;;;;5.00;4.50;;;24.20;99.90;;;;;;5019572;28;20491;-73
2023/08/15 12:08:35;;;;;;;4.70;4.20;;;24.20;99.90;;;;;;5040394;28;20479;-73
2023/08/15 12:11:06;;;;;;;6.00;4.57;;;24.30;99.90;;;;;;5021766;28;20468;-73
2023/08/15 12:13:37;;;;;;;5.00;4.50;;;24.20;99.90;;;;;;5022446;28;20288;-74
2023/08/15 12:16:04;;;;;;;8.37;4.60;;;24.20;99.90;;;;;;5019619;28;20488;-73
2023/08/15 12:18:31;;;;;;;4.60;4.20;;;24.30;99.90;;;;;;5022505;28;20563;-74
2023/08/15 12:20:57;;;;;;;4.30;4.00;;;24.40;99.90;;;;;;5022932;28;20481;-74
2023/08/15 12:23:23;;;;;;;6.73;6.13;;;24.40;99.90;;;;;;5037120;28;20518;-74
2023/08/15 12:25:49;;;;;;;6.10;4.33;;;24.30;99.90;;;;;;5036292;28;20465;-73
2023/08/15 12:28:15;;;;;;;4.57;4.00;;;24.20;99.90;;;;;;5019587;28;20817;-73
2023/08/15 12:30:41;;;;;;;4.90;4.40;;;24.10;99.90;;;;;;5019136;28;20214;-74
2023/08/15 12:33:07;;;;;;;11.23;4.40;;;24.20;99.90;;;;;;5017984;28;20568;-74
2023/08/15 12:35:33;;;;;;;6.00;4.53;;;24.00;99.90;;;;;;5038878;28;20488;-74
2023/08/15 12:37:59;;;;;;;6.20;4.87;;;23.90;99.90;;;;;;5036624;28;20227;-74
2023/08/15 12:40:26;;;;;;;5.13;4.63;;;23.70;99.90;;;;;;5033487;28;20219;-74
2023/08/15 12:42:51;;;;;;;5.10;4.60;;;23.70;99.90;;;;;;5021940;28;20224;-74